Weather observations for the past three days for
Bay City, Bay City Municipal Airport
Imperial (Metric)
Date Time (cdt) Wind (mph) Vis. (mi.) Weather Sky Cond. Temperature (ºF) Relative Humidity Wind Chill (°F) Heat Index (°F) Pressure Precipitation (in)
Air Dwpt 6 hour altimeter (in) sea level (mb) 1 hr 3 hr 6 hr
Max. Min.
04 20:15 S 8 10.00 Fair CLR 72.5 68.9 89% 29.82 0.0
04 19:55 S 10 10.00 Fair CLR 73.4 68.2 84% 29.81 0.0
04 19:35 S 13 10.00 Fair CLR 73.9 67.6 81% 29.82 0.0
04 19:15 S 15 5.00 A Few Clouds with Haze FEW030 74.7 67.1 77% 29.82 0.0
04 18:55 S 14 4.00 Partly Cloudy with Haze SCT031 75.2 67.1 76% 76 29.83 0.0
04 18:35 S 12 7.00 Mostly Cloudy BKN031 76.1 67.1 74% 78 29.83 0.0
04 18:15 SE 12 5.00 Partly Cloudy with Haze SCT031 76.8 67.8 74% 78 29.84 0.0
04 17:55 S 14 6.00 Partly Cloudy with Haze SCT033 77 67.3 72% 79 29.84 0.0
04 17:35 SE 14 6.00 A Few Clouds with Haze FEW034 77.9 67.1 70% 80 29.84 0.0
04 17:15 S 13 9.00 A Few Clouds FEW034 77.9 66.9 69% 80 29.84 0.0
04 16:55 S 15 G 22 8.00 Partly Cloudy FEW035 SCT045 77.9 66.7 69% 80 29.85 0.0
04 16:35 S 14 G 22 6.00 Mostly Cloudy with Haze SCT036 BKN045 78.6 66.9 67% 81 29.87 0.0
04 16:15 S 14 8.00 Mostly Cloudy FEW038 BKN045 78.3 66.9 68% 80 29.88 0.0
04 15:55 S 13 7.00 Overcast FEW035 OVC045 79.3 67.8 68% 82 29.88 0.0
04 15:35 S 12 10.00 Overcast BKN037 OVC047 77.9 68 72% 80 29.88 0.0
04 15:15 S 13 9.00 Mostly Cloudy BKN041 78.4 67.5 69% 81 29.89 0.0
04 14:55 S 12 10.00 Mostly Cloudy BKN043 80.1 68.2 67% 83 29.89 0.0
04 14:35 S 13 G 20 8.00 Mostly Cloudy SCT039 BKN047 79.2 68 69% 82 29.9 0.0
04 14:15 SE 14 8.00 Overcast SCT035 OVC045 79 68 69% 81 29.91 0.0
04 13:55 S 14 9.00 Mostly Cloudy BKN037 BKN047 77.9 67.5 70% 80 29.91 0.0
04 13:35 S 16 G 22 9.00 Mostly Cloudy SCT036 BKN044 BKN370 78.3 66.9 68% 80 29.92 0.0
04 13:15 S 14 10.00 Mostly Cloudy BKN038 79.5 67.5 67% 82 29.92 0.0
04 12:55 S 14 G 22 10.00 Overcast OVC039 77.4 66 68% 79 29.93 0.0
04 12:35 S 15 10.00 Mostly Cloudy BKN038 BKN046 77 65.7 68% 79 29.94 0.0
04 12:15 S 14 G 20 10.00 Mostly Cloudy BKN040 BKN048 78.1 66 67% 80 29.95 0.0
04 11:55 S 13 10.00 Mostly Cloudy SCT037 BKN044 78.1 66 67% 80 29.95 0.0
04 11:35 S 15 G 22 10.00 Partly Cloudy SCT037 SCT045 77.5 65.8 67% 79 29.96 0.0
04 11:15 S 14 G 22 10.00 Partly Cloudy SCT035 SCT043 76.8 65.7 69% 79 29.96 0.0
04 10:55 S 17 G 22 10.00 Partly Cloudy SCT039 76.8 65.5 68% 79 29.97 0.0
04 10:35 S 15 G 21 8.00 Mostly Cloudy FEW035 BKN043 77.4 66.2 69% 79 29.96 0.0
04 10:15 S 14 9.00 Partly Cloudy SCT034 SCT043 76.3 65.7 70% 78 29.96 0.0
04 09:55 S 13 10.00 Partly Cloudy SCT034 74.8 65.8 74% 29.97 0.0
04 09:35 S 16 10.00 A Few Clouds FEW034 73.6 66 77% 29.97 0.0
04 09:15 S 14 10.00 Fair CLR 73.2 66.6 80% 29.97 0.0
04 08:55 S 6 10.00 Fair CLR 71.6 68 88% 29.97 0.0
04 08:35 Calm 10.00 Fair CLR 68.4 66.6 94% 29.96 0.0
04 08:15 Calm 9.00 Fair CLR 65.3 64.8 98% 29.96 0.0
04 07:55 Calm 8.00 Fair CLR 62.1 62.1 100% 29.96 0.0
04 07:35 Calm 8.00 Fair CLR 60.3 60.3 100% 29.95 0.0
04 07:15 Calm 7.00 Fair CLR 59 59 100% 29.95 0.0
04 06:55 E 3 7.00 Fair CLR 57 57 100% 29.95 0.0
04 06:35 SE 3 7.00 Fair CLR 56.7 56.7 100% 29.95 0.0
04 06:15 SE 3 8.00 Fair CLR 55.8 55.8 100% 29.95 0.0
04 05:55 E 5 8.00 Fair CLR 55.2 55.2 100% 29.95 0.0
04 05:35 E 3 9.00 Fair CLR 55.2 55.2 100% 29.95 0.0
04 05:15 E 3 10.00 Fair CLR 54.7 54.7 100% 29.95 0.0
04 04:55 E 3 9.00 Fair CLR 55.4 55.4 100% 29.96 0.0
04 04:35 Calm 10.00 Fair CLR 55.8 55.8 100% 29.97 0.0
04 04:15 Calm 10.00 Fair CLR 56.1 56.1 100% 29.97 0.0
04 03:55 NE 3 10.00 Fair CLR 56.3 56.3 100% 29.97 0.0
04 03:35 E 3 10.00 Fair CLR 56.3 56.3 100% 29.97 0.0
04 03:15 Calm 9.00 Fair CLR 55 55 100% 29.97 0.0
04 02:55 E 3 10.00 A Few Clouds FEW210 56.5 56.1 99% 29.99 0.0
04 02:35 Calm 10.00 A Few Clouds FEW210 57.2 55.9 96% 30 0.0
04 02:15 Calm 10.00 Fair CLR 57 56.5 98% 30 0.0
04 01:55 Calm 10.00 Fair CLR 57.6 56.1 95% 30.02 0.0
04 01:35 Calm 10.00 Fair CLR 57.6 56.1 95% 30.03 0.0
04 01:15 SE 3 10.00 Fair CLR 58.1 56.7 95% 30.03 0.0
04 00:55 E 5 10.00 Fair CLR 56.5 56.5 100% 30.03 0.0
04 00:35 SE 3 10.00 Fair CLR 58.5 56.7 94% 30.03 0.0
04 00:15 Calm 10.00 Fair CLR 58.1 57 96% 30.05 0.0
03 23:55 SE 3 10.00 Fair CLR 57.9 57.2 97% 30.05 0.0
03 23:35 SE 3 10.00 Fair CLR 58.3 57 96% 30.05 0.0
03 23:15 E 3 10.00 Fair CLR 59.9 57.2 91% 30.05 0.0
03 22:55 Calm 10.00 Fair CLR 60.8 57.4 89% 30.05 0.0
03 22:35 SE 3 10.00 Fair CLR 62.4 56.1 80% 30.05 0.0
03 22:15 SE 3 10.00 Fair CLR 62.2 56.1 81% 30.05 0.0
03 21:55 E 5 10.00 Fair CLR 61.9 55.8 80% 30.05 0.0
03 21:35 SE 5 10.00 Fair CLR 62.8 55.2 76% 30.05 0.0
03 21:15 SE 5 10.00 Fair CLR 62.6 55 76% 30.04 0.0
03 20:55 SE 6 10.00 Fair CLR 63.7 54.1 71% 30.04 0.0
03 20:35 SE 6 10.00 Fair CLR 66 52.9 63% 30.04 0.0
03 20:15 SE 6 10.00 Fair CLR 67.1 52.3 59% 30.04 0.0
03 19:55 SE 6 10.00 Fair CLR 68 52.3 57% 30.04 0.0
03 19:35 SE 8 10.00 Fair CLR 69.6 52.2 54% 30.04 0.0
03 19:15 SE 10 10.00 Fair CLR 71.6 51.1 48% 30.04 0.0
03 18:55 SE 13 10.00 Fair CLR 72.7 51.1 47% 30.04 0.0
03 18:35 SE 12 10.00 Fair CLR 73.9 51.4 45% 30.04 0.0
03 18:15 SE 12 10.00 Fair CLR 75 50 42% 78 30.04 0.0
03 17:55 E 12 10.00 Fair CLR 75.9 49.6 40% 78 30.05 0.0
03 17:35 SE 10 10.00 Fair CLR 76.1 50.9 41% 78 30.05 0.0
03 17:15 E 10 10.00 Fair CLR 77 51.6 41% 78 30.05 0.0
03 16:55 SE 13 10.00 Fair CLR 76.6 50.9 41% 78 30.07 0.0
03 16:35 SE 14 10.00 A Few Clouds FEW070 77.4 51.3 40% 78 30.08 0.0
03 16:15 E 12 G 17 10.00 Fair CLR 77.2 51.3 40% 78 30.08 0.0
03 15:55 E 10 10.00 Fair CLR 77.2 50.4 39% 78 30.09 0.0
03 15:35 E 8 10.00 Fair CLR 77.7 52 41% 79 30.09 0.0
03 15:15 E 5 G 18 10.00 Fair CLR 77.2 50 39% 78 30.1 0.0
03 14:55 SE 12 10.00 A Few Clouds FEW070 78.3 53.4 42% 79 30.11 0.0
03 14:35 E 10 10.00 Mostly Cloudy BKN065 76.5 50.9 41% 78 30.11 0.0
03 13:55 SE 10 10.00 Fair CLR 77.9 53.6 43% 79 30.13 0.0
03 13:35 SE 8 10.00 A Few Clouds FEW065 77.5 53.6 44% 79 30.14 0.0
03 13:15 SE 5 10.00 Partly Cloudy SCT065 76.5 52.5 43% 78 30.14 0.0
03 12:55 E 6 10.00 Fair CLR 76.6 51.1 41% 78 30.15 0.0
03 12:35 Vrbl 7 10.00 Fair CLR 76.8 48.7 37% 78 30.16 0.0
03 12:15 NE 12 10.00 Fair CLR 76.8 48.7 37% 78 30.17 0.0
03 11:55 NE 8 10.00 Fair CLR 75.9 48.2 38% 78 30.17 0.0
03 11:35 E 7 10.00 Fair CLR 75.7 48.4 38% 78 30.18 0.0 0.01
03 11:15 E 9 10.00 Fair CLR 75.4 49.8 41% 78 30.18 0.0 0.01
03 10:55 SE 6 10.00 Fair CLR 74.7 49.1 41% 30.18 0.0
03 10:35 Vrbl 5 10.00 Fair CLR 73.6 49.6 43% 30.18 0.0
03 10:15 E 9 10.00 Fair CLR 74.1 51.8 46% 30.17 0.0
03 09:55 NE 8 10.00 Fair CLR 73 54.3 52% 30.16 0.0
03 09:35 NE 7 10.00 Fair CLR 71.1 57.7 63% 30.16 0.0
03 09:15 NE 6 10.00 Fair CLR 69.4 60.4 73% 30.16 0.0
03 08:55 E 5 10.00 Fair CLR 67.1 60.1 78% 30.16 0.0
03 08:35 Calm 10.00 Fair CLR 64.9 60.6 86% 30.16 0.0
03 08:15 Calm 10.00 Fair CLR 61.9 60.1 94% 30.15 0.0
03 07:55 Calm 10.00 Fair CLR 58.3 58.3 100% 30.15 0.0
03 07:35 Calm 10.00 Fair CLR 55 55 100% 30.13 0.0
03 07:15 Calm 10.00 Fair CLR 52.3 52.3 100% 30.13 0.0
03 06:55 Calm 10.00 Fair CLR 51.3 51.3 100% 30.13 0.0
03 06:35 N 3 10.00 Fair CLR 51.4 51.4 100% 30.13 0.0
03 06:15 Calm 9.00 Fair CLR 51.8 51.8 100% 30.13 0.0
03 05:55 Calm 9.00 Fair CLR 52.2 52.2 100% 30.13 0.0
03 05:35 Calm 9.00 Fair CLR 51.8 51.8 100% 30.12 0.0
03 05:15 Calm 8.00 Fair CLR 52 52 100% 30.11 0.0
03 04:55 Calm 9.00 Fair CLR 53.1 53.1 100% 30.12 0.0
03 04:35 Calm 9.00 Fair CLR 53.2 53.2 100% 30.12 0.0
03 04:15 Calm 10.00 Fair CLR 53.4 53.4 100% 30.12 0.0
03 03:55 Calm 10.00 Fair CLR 53.4 53.4 100% 30.12 0.0
03 03:35 Calm 10.00 Fair CLR 53.8 53.8 100% 30.11 0.0
03 03:15 Calm 10.00 Fair CLR 54 54 100% 30.12 0.0
03 02:55 Calm 10.00 Fair CLR 54.5 54.5 100% 30.12 0.0
03 02:35 Calm 10.00 Fair CLR 54.7 54.7 100% 30.12 0.0
03 02:15 Calm 10.00 Fair CLR 54.7 54.7 100% 30.12 0.0
03 01:55 Calm 10.00 Fair CLR 54.5 54.5 100% 30.12 0.0
03 01:35 Calm 10.00 Fair CLR 57 56.3 97% 30.12 0.0
03 01:15 Calm 10.00 Fair CLR 56.8 55.8 96% 30.11 0.0
03 00:55 Calm 10.00 Fair CLR 56.7 55.6 96% 30.11 0.0
03 00:35 Calm 10.00 Fair CLR 59.4 55.8 88% 30.11 0.0
03 00:15 Calm 10.00 Fair CLR 59.5 55.4 86% 30.11 0.0
02 23:55 Calm 10.00 Fair CLR 59 55.4 88% 30.1 0.0
02 23:35 Calm 10.00 Fair CLR 61.2 54.5 79% 30.1 0.0
02 23:15 N 3 10.00 Fair CLR 58.6 55.9 91% 30.1 0.0
02 22:55 N 5 10.00 Fair CLR 59.9 55.6 86% 30.1 0.0
02 22:35 N 3 10.00 Fair CLR 57.6 56.5 96% 30.09 0.0 0.01
02 22:15 N 5 10.00 Fair CLR 61.9 55.4 79% 30.08 0.0 0.01
02 21:55 Calm 10.00 Fair CLR 63.1 54.9 75% 30.08 0.0
02 21:35 Calm 10.00 Fair CLR 61.7 55.9 82% 30.08 0.0
02 21:15 N 3 10.00 Fair CLR 64.4 53.8 69% 30.07 0.0
02 20:55 Calm 10.00 Fair CLR 64 57.7 80% 30.07 0.0
02 20:35 Calm 10.00 Fair CLR 65.5 56.3 72% 30.06 0.0
02 20:15 Calm 10.00 Fair CLR 67.3 54.1 63% 30.06 0.0
02 19:55 Calm 10.00 Fair CLR 68.9 51.8 55% 30.06 0.0
02 19:35 N 3 10.00 Fair CLR 70.9 53.1 53% 30.05 0.0 0.01
02 19:15 N 6 10.00 Fair CLR 72.5 51.1 47% 30.05 0.0 0.01
02 18:55 N 6 10.00 Fair CLR 73.8 50.2 44% 30.04 0.0
02 18:35 NE 9 10.00 Fair CLR 74.3 48.7 41% 30.04 0.0
02 18:15 N 10 10.00 Fair CLR 74.8 48.9 40% 30.04 0.0
02 17:55 N 8 10.00 Fair CLR 75 48.9 40% 77 30.03 0.0
02 17:35 N 13 10.00 Fair CLR 75.2 49.5 40% 78 30.02 0.0
02 17:15 NE 14 10.00 Fair CLR 75.4 48.7 39% 78 30.02 0.0
02 16:55 NE 12 10.00 Fair CLR 74.8 49.6 41% 30.03 0.0
02 16:35 N 12 10.00 Fair CLR 75 50.9 43% 78 30.03 0.0 0.01
02 16:15 N 15 G 20 10.00 Fair CLR 75 50.9 43% 78 30.03 0.0
02 15:55 N 16 G 22 10.00 Fair CLR 74.7 50.9 43% 30.03 0.0
02 15:35 NE 15 G 23 10.00 Fair CLR 74.3 51.8 45% 30.04 0.0
02 15:15 NE 13 10.00 Fair CLR 74.1 51.6 45% 30.04 0.0
02 14:55 N 17 G 24 10.00 Fair CLR 73.8 51.3 45% 30.05 0.0
02 14:35 N 17 10.00 Fair CLR 73 51.3 46% 30.05 0.0 0.01
02 14:15 NE 14 10.00 Fair CLR 72.7 51.6 48% 30.06 0.0 0.01
02 13:55 N 14 10.00 A Few Clouds FEW320 72.7 53.2 51% 30.07 0.0
02 13:35 N 15 10.00 A Few Clouds FEW320 71.4 52.5 51% 30.07 0.0 0.02
02 13:15 NE 14 10.00 Fair CLR 70.9 52.3 52% 30.08 0.0 0.01
02 12:55 N 16 G 24 10.00 Fair CLR 70.5 51.6 51% 30.09 0.0
02 12:35 N 18 10.00 A Few Clouds FEW190 70.2 52.5 54% 30.09 0.0 0.01
02 12:15 N 15 10.00 A Few Clouds FEW190 69.1 52.5 56% 30.1 0.0 0.01
02 11:55 N 18 G 23 10.00 A Few Clouds FEW190 69.1 56.5 64% 30.1 0.0
02 11:35 N 14 G 23 10.00 Partly Cloudy SCT190 67.8 56.8 68% 30.1 0.0 0.01
02 11:15 NE 16 10.00 Mostly Cloudy BKN180 66.4 56.8 72% 30.09 0.0 0.01
02 10:55 N 13 10.00 Partly Cloudy SCT180 65.5 57.9 77% 30.09 0.0
02 10:35 N 14 10.00 A Few Clouds FEW190 64.2 57.6 79% 30.09 0.0 0.01
02 10:15 N 15 10.00 Mostly Cloudy BKN190 63.1 57.7 83% 30.08 0.0 0.01
02 09:55 N 14 10.00 Mostly Cloudy BKN190 61.7 57.2 85% 30.08 0.0
02 09:35 NE 16 10.00 Overcast OVC190 60.8 56.7 86% 30.08 0.0 0.01
02 09:15 N 10 10.00 Mostly Cloudy BKN190 60.3 57.6 91% 30.08 0.0 0.01
02 08:55 N 12 9.00 Partly Cloudy SCT190 58.5 56.5 93% 30.07 0.0
02 08:35 N 10 G 18 10.00 Fair CLR 57.7 56.3 95% 30.07 0.0 0.01
02 08:15 N 15 10.00 Fair CLR 56.8 55.9 97% 30.06 0.0
02 07:55 N 9 9.00 Fair CLR 56.1 55.8 99% 30.05 0.0
02 07:35 N 10 9.00 Fair CLR 55.4 55.4 100% 30.04 0.0 0.01
02 07:15 N 8 8.00 Fair CLR 54.5 54.5 100% 30.04 0.0 0.01
02 06:55 N 8 8.00 Fair CLR 54.3 54.3 100% 30.02 0.0
02 06:35 N 8 8.00 Fair CLR 54.3 54.3 100% 30.02 0.0 0.02
02 06:15 N 10 9.00 Fair CLR 54.7 54.7 100% 30 0.0 0.01
02 05:55 N 8 9.00 Fair CLR 55 55 100% 29.99 0.0
02 05:35 N 7 10.00 Fair CLR 55.6 55.6 100% 29.98 0.0 0.02
02 05:15 N 9 9.00 Partly Cloudy SCT015 55.9 55.9 100% 29.97 0.0 0.01
02 04:55 N 9 10.00 Overcast OVC013 56.7 56.7 100% 29.98 0.0
02 04:35 N 12 10.00 Overcast OVC011 56.7 56.7 100% 29.97 0.0 0.02
02 04:15 N 10 10.00 Overcast OVC009 56.5 56.5 100% 29.97 0.0 0.01
02 03:55 N 14 10.00 Overcast OVC008 56.3 56.3 100% 29.95 0.0
02 03:35 N 10 8.00 Overcast OVC007 56.5 56.5 100% 29.95 0.0 0.02
02 03:15 N 12 9.00 Overcast OVC008 56.8 56.8 100% 29.94 0.0 0.01
02 02:55 NE 14 10.00 Overcast OVC009 57 57 100% 29.95 0.0
02 02:35 NE 13 10.00 Overcast OVC009 57.2 57.2 100% 29.95 0.0 0.02
02 02:15 NE 13 10.00 Overcast OVC009 57.2 57.2 100% 29.96 0.0 0.01
02 01:55 N 12 10.00 Overcast OVC010 57.6 57.6 100% 29.96 0.0
02 01:35 N 15 G 21 10.00 Overcast OVC010 57.4 57.4 100% 29.95 0.0 0.02
02 01:15 N 15 G 25 10.00 Mostly Cloudy BKN011 57.4 57.4 100% 29.94 0.0 0.01
02 00:55 NE 13 10.00 Overcast SCT008 BKN013 OVC085 57.4 57.4 100% 29.93 0.0
02 00:35 N 14 10.00 Overcast OVC009 57.7 57.7 100% 29.93 0.0 0.03
02 00:15 N 14 10.00 Overcast OVC009 57.9 57.9 100% 29.93 0.0 0.02
01 23:55 N 17 10.00 Overcast OVC009 58.1 58.1 100% 29.92 0.0 0.01
01 23:35 N 20 G 24 10.00 Overcast OVC008 58.6 58.6 100% 29.91 0.0 0.02
01 23:15 N 10 10.00 Overcast OVC007 59.5 59.5 100% 29.91 0.0 0.01
01 22:55 N 12 G 21 10.00 Overcast BKN010 OVC016 59.4 59.4 100% 29.92 0.0
01 22:35 N 15 10.00 Overcast OVC010 59.7 59.7 100% 29.91 0.0 0.03
01 22:15 N 12 10.00 Overcast BKN010 OVC018 59.9 59.9 100% 29.89 0.0 0.02
01 21:55 N 15 10.00 Overcast BKN010 OVC016 59.7 59.7 100% 29.88 0.0 0.01
01 21:35 N 12 10.00 Light Rain BKN015 59.7 59.7 100% 29.87 0.0 0.04
01 21:15 NE 16 G 22 6.00 Light Rain Fog/Mist SCT016 59.9 59.9 100% 29.86 0.0 0.02
01 20:55 N 14 G 22 6.00 Light Rain Fog/Mist FEW012 60.3 60.3 100% 29.87 0.0 0.01
01 20:35 N 16 4.00 Rain Fog/Mist BKN010 60.6 60.6 100% 29.85 0.0 0.03
Date Time (cdt) Wind (mph) Vis. (mi.) Weather Sky Cond. Air Dwpt Max. Min. Relative Humidity Wind Chill (°F) Heat Index (°F) altimeter (in) sea level (mb) 1 hr 3 hr 6 hr
6 hour
Temperature (ºF) Pressure Precipitation (in)